Time;durP1;ratioP1;P1;durP2;ratioP2;P2;SDS_P1;SDS_P2;PMS_P1;PMS_P2;Temp;Humidity;BMP_temperature;BMP_pressure;BME280_temperature;BME280_humidity;BME280_pressure;Samples;Min_cycle;Max_cycle;Signal;HPM_P1;HPM_P2
2022/01/29 00:00:58;;;;;;;;;;;;;;;0.57;74.97;101333.19;5540019;32;34529;-84
2022/01/29 00:04:05;;;;;;;;;;;;;;;0.47;75.75;101340.50;5539251;32;35287;-84
2022/01/29 00:07:09;;;;;;;;;;;;;;;0.35;76.65;101351.31;5540336;32;34514;-84
2022/01/29 00:10:12;;;;;;;;;;;;;;;0.37;77.05;101346.91;5540440;32;34849;-84
2022/01/29 00:13:17;;;;;;;;;;;;;;;0.25;78.61;101354.22;5543142;32;34720;-84
2022/01/29 00:16:21;;;;;;;;;;;;;;;0.14;79.58;101353.69;5541850;32;34586;-84
2022/01/29 00:19:24;;;;;;;;;;;;;;;0.11;80.25;101345.97;5540414;32;33754;-84
2022/01/29 00:22:27;;;;;;;;;;;;;;;0.01;80.56;101337.59;5538899;32;35032;-84
2022/01/29 00:25:30;;;;;;;;;;;;;;;-0.16;81.37;101349.38;5540259;32;34359;-84
2022/01/29 00:28:35;;;;;;;;;;;;;;;-0.06;80.18;101349.97;5540116;32;35031;-84
2022/01/29 00:31:37;;;;;;;;;;;;;;;-0.10;80.43;101343.16;5538780;32;35060;-84
2022/01/29 00:34:40;;;;;;;;;;;;;;;-0.20;81.03;101341.72;5539561;32;35970;-84
2022/01/29 00:37:43;;;;;;;;;;;;;;;-0.10;80.02;101342.28;5540062;32;34824;-83
2022/01/29 00:40:46;;;;;;;;;;;;;;;-0.05;79.75;101341.25;5540265;32;34232;-83
2022/01/29 00:43:51;;;;;;;;;;;;;;;-0.02;80.64;101341.16;5540016;32;34866;-83
2022/01/29 00:46:54;;;;;;;;;;;;;;;0.08;80.89;101339.13;5538779;32;33885;-84
2022/01/29 00:49:56;;;;;;;;;;;;;;;-0.05;82.03;101320.41;5539719;32;33993;-83
2022/01/29 00:52:59;;;;;;;;;;;;;;;-0.09;82.36;101347.44;5538287;32;34645;-83
2022/01/29 00:56:06;;;;;;;;;;;;;;;-0.14;83.00;101338.91;5539828;32;34247;-84
2022/01/29 00:59:09;;;;;;;;;;;;;;;-0.12;83.17;101354.50;5538955;32;33938;-83
2022/01/29 01:02:14;;;;;;;;;;;;;;;-0.20;84.10;101346.94;5538715;32;34359;-83
2022/01/29 01:05:17;;;;;;;;;;;;;;;-0.27;84.84;101325.44;5539607;32;34562;-83
2022/01/29 01:08:19;;;;;;;;;;;;;;;-0.26;84.71;101347.09;5539515;32;34762;-83
2022/01/29 01:11:22;;;;;;;;;;;;;;;-0.25;84.95;101338.41;5539517;32;35055;-84
2022/01/29 01:14:25;;;;;;;;;;;;;;;-0.29;84.57;101357.59;5539819;32;36064;-83
2022/01/29 01:17:27;;;;;;;;;;;;;;;-0.34;85.91;101361.19;5541310;32;34196;-84
2022/01/29 01:20:30;;;;;;;;;;;;;;;-0.30;86.29;101366.31;5540878;32;36760;-84
2022/01/29 01:23:33;;;;;;;;;;;;;;;-0.38;87.18;101385.56;5538795;32;34616;-84
2022/01/29 01:26:35;;;;;;;;;;;;;;;-0.45;87.63;101386.66;5540839;32;35497;-84
2022/01/29 01:29:40;;;;;;;;;;;;;;;-0.51;88.02;101384.22;5538803;32;35178;-84
2022/01/29 01:32:45;;;;;;;;;;;;;;;-0.48;86.37;101378.94;5540115;32;34605;-84
2022/01/29 01:35:52;;;;;;;;;;;;;;;-0.44;86.49;101377.94;5540923;32;34518;-84
2022/01/29 01:39:07;;;;;;;;;;;;;;;-0.49;85.44;101385.87;5538561;32;35734;-84
2022/01/29 01:42:09;;;;;;;;;;;;;;;-0.42;84.63;101393.50;5537673;32;33257;-83
2022/01/29 01:45:13;;;;;;;;;;;;;;;-0.48;84.60;101389.31;5539188;32;35158;-84
2022/01/29 01:48:16;;;;;;;;;;;;;;;-0.47;83.88;101401.44;5539847;32;34159;-84
2022/01/29 01:51:19;;;;;;;;;;;;;;;-0.45;83.30;101394.44;5540297;32;34103;-85
2022/01/29 01:54:24;;;;;;;;;;;;;;;-0.43;83.10;101386.59;5538733;32;35048;-83
2022/01/29 01:57:27;;;;;;;;;;;;;;;-0.30;82.56;101394.91;5538921;32;34343;-83
2022/01/29 02:00:30;;;;;;;;;;;;;;;-0.40;84.35;101400.38;5538647;32;34451;-84
2022/01/29 02:03:35;;;;;;;;;;;;;;;-0.58;85.74;101385.28;5538714;32;34418;-82
2022/01/29 02:06:40;;;;;;;;;;;;;;;-0.63;86.01;101375.87;5539306;32;36815;-84
2022/01/29 02:09:44;;;;;;;;;;;;;;;-0.57;85.47;101374.00;5540313;32;34677;-84
2022/01/29 02:12:49;;;;;;;;;;;;;;;-0.56;84.44;101365.31;5541865;32;34836;-83
2022/01/29 02:15:51;;;;;;;;;;;;;;;-0.58;84.88;101370.56;5541128;32;34583;-84
2022/01/29 02:18:54;;;;;;;;;;;;;;;-0.50;83.14;101368.56;5539685;32;35575;-85
2022/01/29 02:22:03;;;;;;;;;;;;;;;-0.37;81.90;101366.47;5538448;32;34507;-83
2022/01/29 02:25:28;;;;;;;;;;;;;;;-0.21;79.67;101382.47;5539785;32;34342;-83
2022/01/29 02:28:32;;;;;;;;;;;;;;;-0.08;78.39;101392.50;5540397;32;34451;-84
2022/01/29 02:31:44;;;;;;;;;;;;;;;-0.14;78.95;101400.50;5540589;32;35469;-83
2022/01/29 02:34:47;;;;;;;;;;;;;;;-0.20;79.62;101394.59;5538481;32;37029;-84
2022/01/29 02:37:52;;;;;;;;;;;;;;;-0.32;80.28;101401.00;5538507;32;34418;-84
2022/01/29 02:40:59;;;;;;;;;;;;;;;-0.38;80.65;101401.16;5540089;32;34508;-84
2022/01/29 02:44:04;;;;;;;;;;;;;;;-0.38;80.65;101406.37;5541858;32;33811;-84
2022/01/29 02:47:15;;;;;;;;;;;;;;;-0.47;81.25;101409.22;5539836;32;34396;-84
2022/01/29 02:50:18;;;;;;;;;;;;;;;-0.62;81.89;101408.75;5539396;32;34881;-84
2022/01/29 02:53:20;;;;;;;;;;;;;;;-0.49;80.50;101411.88;5540830;32;34577;-83
2022/01/29 02:56:23;;;;;;;;;;;;;;;-0.46;80.26;101413.53;5538046;32;34078;-83
2022/01/29 02:59:26;;;;;;;;;;;;;;;-0.30;78.56;101418.31;5538794;32;35458;-84
2022/01/29 03:02:31;;;;;;;;;;;;;;;-0.28;77.73;101421.72;5537883;32;34672;-84
2022/01/29 03:05:34;;;;;;;;;;;;;;;-0.32;78.14;101427.00;5539419;32;34574;-83
2022/01/29 03:08:38;;;;;;;;;;;;;;;-0.20;77.35;101430.16;5537504;32;34556;-83
2022/01/29 03:11:40;;;;;;;;;;;;;;;-0.18;77.01;101428.38;5537456;32;34966;-83
2022/01/29 03:14:43;;;;;;;;;;;;;;;-0.19;77.00;101437.06;5538617;32;35127;-83
2022/01/29 03:17:45;;;;;;;;;;;;;;;-0.27;76.98;101442.47;5538085;32;35628;-84
2022/01/29 03:20:48;;;;;;;;;;;;;;;-0.17;76.20;101440.47;5539206;32;35297;-83
2022/01/29 03:23:50;;;;;;;;;;;;;;;-0.05;75.16;101434.06;5538340;32;35463;-84
2022/01/29 03:26:53;;;;;;;;;;;;;;;-0.08;75.39;101432.41;5538113;32;34616;-84
2022/01/29 03:29:56;;;;;;;;;;;;;;;-0.01;74.50;101436.53;5539156;32;35288;-84
2022/01/29 03:32:58;;;;;;;;;;;;;;;-0.03;74.57;101443.50;5538203;32;34265;-83
2022/01/29 03:36:01;;;;;;;;;;;;;;;0.04;74.03;101427.75;5537610;32;35188;-84
2022/01/29 03:39:04;;;;;;;;;;;;;;;-0.06;74.38;101421.94;5538319;32;34754;-83
2022/01/29 03:42:13;;;;;;;;;;;;;;;-0.12;74.20;101412.56;5536892;32;34963;-83
2022/01/29 03:45:19;;;;;;;;;;;;;;;-0.02;73.42;101408.78;5537016;32;34544;-83
2022/01/29 03:48:22;;;;;;;;;;;;;;;0.05;73.21;101419.03;5539500;32;34636;-83
2022/01/29 03:51:29;;;;;;;;;;;;;;;0.06;72.66;101418.12;5538750;32;34311;-83
2022/01/29 03:54:33;;;;;;;;;;;;;;;-0.02;72.59;101418.38;5539534;32;34560;-83
2022/01/29 03:57:36;;;;;;;;;;;;;;;-0.07;73.03;101421.09;5526438;32;34709;-83
2022/01/29 04:00:39;;;;;;;;;;;;;;;0.10;71.97;101422.34;5538815;32;34492;-83
2022/01/29 04:03:50;;;;;;;;;;;;;;;0.00;72.94;101445.19;5539022;32;35105;-83
2022/01/29 04:06:53;;;;;;;;;;;;;;;-0.08;73.07;101442.81;5539741;32;35001;-83
2022/01/29 04:09:59;;;;;;;;;;;;;;;-0.12;73.35;101454.19;5541185;32;34418;-83
2022/01/29 04:13:02;;;;;;;;;;;;;;;-0.18;74.39;101455.22;5541883;32;33331;-83
2022/01/29 04:16:04;;;;;;;;;;;;;;;-0.20;74.21;101461.38;5539331;32;34734;-83
2022/01/29 04:19:09;;;;;;;;;;;;;;;-0.22;74.22;101452.75;5540982;32;34552;-84
2022/01/29 04:22:12;;;;;;;;;;;;;;;-0.30;74.60;101470.34;5539693;32;35313;-83
2022/01/29 04:25:16;;;;;;;;;;;;;;;-0.29;74.73;101469.44;5539675;32;34353;-83
2022/01/29 04:28:21;;;;;;;;;;;;;;;-0.39;75.04;101472.25;5539114;32;34876;-83
2022/01/29 04:31:23;;;;;;;;;;;;;;;-0.46;75.75;101470.75;5539661;32;35519;-83
2022/01/29 04:34:26;;;;;;;;;;;;;;;-0.43;75.39;101475.88;5539648;32;34653;-83
2022/01/29 04:37:30;;;;;;;;;;;;;;;-0.45;75.87;101466.41;5538586;32;34062;-83
2022/01/29 04:40:35;;;;;;;;;;;;;;;-0.44;75.39;101463.75;5538814;32;35045;-83
2022/01/29 04:43:37;;;;;;;;;;;;;;;-0.45;75.92;101472.44;5538062;32;34633;-83
2022/01/29 04:46:43;;;;;;;;;;;;;;;-0.37;74.96;101475.69;5543858;32;35188;-83
2022/01/29 04:49:45;;;;;;;;;;;;;;;-0.45;75.94;101477.66;5538571;32;34250;-83
2022/01/29 04:52:48;;;;;;;;;;;;;;;-0.54;76.58;101475.31;5538132;32;34407;-83
2022/01/29 04:55:50;;;;;;;;;;;;;;;-0.43;74.96;101470.66;5538481;32;34925;-83
2022/01/29 04:58:53;;;;;;;;;;;;;;;-0.37;74.87;101474.84;5536818;32;35417;-83
2022/01/29 05:01:55;;;;;;;;;;;;;;;-0.40;75.19;101478.38;5540694;32;34947;-83
2022/01/29 05:04:58;;;;;;;;;;;;;;;-0.30;74.32;101478.13;5539302;32;34421;-84
2022/01/29 05:08:01;;;;;;;;;;;;;;;-0.36;73.95;101482.59;5538882;32;34500;-83
2022/01/29 05:11:05;;;;;;;;;;;;;;;-0.39;74.55;101482.66;5539520;32;35272;-84
2022/01/29 05:14:11;;;;;;;;;;;;;;;-0.38;73.68;101484.37;5538811;32;34621;-83
2022/01/29 05:27:06;;;;;;;;;;;;;;;-0.20;72.17;101487.37;5538179;32;34566;-83
2022/01/29 05:30:09;;;;;;;;;;;;;;;-0.28;72.30;101489.34;5538514;32;33827;-83
2022/01/29 05:33:15;;;;;;;;;;;;;;;-0.18;71.81;101490.81;5539278;32;35071;-83
2022/01/29 05:36:20;;;;;;;;;;;;;;;-0.33;72.64;101495.53;5541862;32;34265;-83
2022/01/29 05:39:26;;;;;;;;;;;;;;;-0.28;72.00;101495.41;5540606;32;34573;-84
2022/01/29 05:42:31;;;;;;;;;;;;;;;-0.22;71.55;101504.78;5538568;32;35074;-83
2022/01/29 05:45:35;;;;;;;;;;;;;;;-0.24;71.53;101502.22;5536934;32;35061;-83
2022/01/29 05:48:39;;;;;;;;;;;;;;;-0.28;72.18;101499.75;5538645;32;33974;-83
2022/01/29 05:51:41;;;;;;;;;;;;;;;-0.41;72.47;101491.41;5538335;32;34269;-83
2022/01/29 05:54:44;;;;;;;;;;;;;;;-0.49;72.59;101491.63;5537529;32;34353;-83
2022/01/29 05:57:48;;;;;;;;;;;;;;;-0.46;72.30;101496.75;5539066;32;34869;-84
2022/01/29 06:00:53;;;;;;;;;;;;;;;-0.50;72.43;101495.09;5538197;32;35510;-83
2022/01/29 06:03:56;;;;;;;;;;;;;;;-0.62;72.79;101493.69;5537867;32;34764;-83
2022/01/29 06:06:58;;;;;;;;;;;;;;;-0.77;73.50;101510.53;5537254;32;34520;-83
2022/01/29 06:10:01;;;;;;;;;;;;;;;-0.82;73.75;101505.47;5537393;32;34394;-84
2022/01/29 06:13:12;;;;;;;;;;;;;;;-1.04;75.30;101505.13;5537658;32;34515;-83
2022/01/29 06:16:15;;;;;;;;;;;;;;;-1.18;75.54;101507.22;5537250;32;35026;-84
2022/01/29 06:19:18;;;;;;;;;;;;;;;-1.04;75.47;101512.91;5536615;32;34262;-83
2022/01/29 06:22:21;;;;;;;;;;;;;;;-0.96;74.49;101518.75;5536977;32;34643;-83
2022/01/29 06:25:24;;;;;;;;;;;;;;;-0.93;74.35;101518.69;5537701;32;34881;-83
2022/01/29 06:28:29;;;;;;;;;;;;;;;-0.93;73.58;101521.28;5537836;32;35258;-83
2022/01/29 06:31:31;;;;;;;;;;;;;;;-0.59;72.18;101519.62;5539956;32;34921;-83
2022/01/29 06:34:37;;;;;;;;;;;;;;;-0.12;68.96;101526.19;5538135;32;34664;-84
2022/01/29 06:37:40;;;;;;;;;;;;;;;-0.11;69.63;101518.34;5539951;32;33943;-83
2022/01/29 06:40:44;;;;;;;;;;;;;;;-0.11;70.43;101520.94;5536992;32;35287;-83
2022/01/29 06:43:49;;;;;;;;;;;;;;;-0.11;70.52;101533.94;5537238;32;36549;-83
2022/01/29 06:46:52;;;;;;;;;;;;;;;0.10;69.18;101527.31;5537504;32;35013;-83
2022/01/29 06:49:54;;;;;;;;;;;;;;;0.33;68.54;101517.09;5536982;32;35155;-84
2022/01/29 06:52:57;;;;;;;;;;;;;;;0.29;68.73;101516.34;5539468;32;34774;-84
2022/01/29 06:55:59;;;;;;;;;;;;;;;0.34;67.65;101527.47;5539018;32;34651;-84
2022/01/29 06:59:02;;;;;;;;;;;;;;;0.46;66.89;101523.66;5536780;32;35194;-84
2022/01/29 07:02:11;;;;;;;;;;;;;;;0.49;66.02;101526.19;5538972;32;34435;-85
2022/01/29 07:05:22;;;;;;;;;;;;;;;0.48;66.50;101521.00;5539223;32;34375;-84
2022/01/29 07:08:27;;;;;;;;;;;;;;;0.46;66.47;101531.47;5539701;32;34485;-84
2022/01/29 07:11:32;;;;;;;;;;;;;;;0.59;64.97;101530.22;5538092;32;35258;-84
2022/01/29 07:14:39;;;;;;;;;;;;;;;0.62;64.88;101529.25;5536766;32;34388;-84
2022/01/29 07:17:44;;;;;;;;;;;;;;;0.77;63.27;101527.91;5536789;32;34805;-84
2022/01/29 07:20:48;;;;;;;;;;;;;;;0.84;62.70;101532.06;5536490;32;34187;-83
2022/01/29 07:23:50;;;;;;;;;;;;;;;0.80;61.86;101522.63;5544126;32;35177;-85
2022/01/29 07:26:59;;;;;;;;;;;;;;;0.76;62.36;101524.47;5541415;32;34314;-84
2022/01/29 07:30:06;;;;;;;;;;;;;;;0.76;61.92;101521.00;5540960;32;34999;-85
2022/01/29 07:33:08;;;;;;;;;;;;;;;0.70;62.96;101526.41;5540069;32;35583;-84
2022/01/29 07:36:11;;;;;;;;;;;;;;;0.77;63.10;101522.72;5540303;32;34340;-84
2022/01/29 07:39:14;;;;;;;;;;;;;;;0.94;63.78;101529.16;5539519;32;34904;-84
2022/01/29 07:42:18;;;;;;;;;;;;;;;0.80;66.04;101530.44;5540815;32;34550;-84
2022/01/29 07:45:21;;;;;;;;;;;;;;;0.76;67.53;101531.44;5538937;32;35117;-84
2022/01/29 07:48:24;;;;;;;;;;;;;;;0.89;67.63;101530.16;5540203;32;34435;-84
2022/01/29 07:51:26;;;;;;;;;;;;;;;0.88;68.59;101532.81;5538912;32;34283;-84
2022/01/29 07:54:29;;;;;;;;;;;;;;;1.12;68.57;101541.59;5539635;32;34817;-84
2022/01/29 07:57:31;;;;;;;;;;;;;;;1.44;68.34;101544.88;5540315;32;35105;-84
2022/01/29 08:00:34;;;;;;;;;;;;;;;1.45;68.78;101543.13;5521457;32;35456;-84
2022/01/29 08:03:41;;;;;;;;;;;;;;;1.47;68.51;101550.00;5520099;32;34059;-84
2022/01/29 08:06:51;;;;;;;;;;;;;;;1.52;69.13;101542.84;5521286;32;34336;-84
2022/01/29 08:09:54;;;;;;;;;;;;;;;1.54;68.63;101529.78;5520684;32;33977;-84
2022/01/29 08:12:58;;;;;;;;;;;;;;;1.59;68.49;101537.44;5520049;32;34519;-84
2022/01/29 08:16:04;;;;;;;;;;;;;;;1.89;66.45;101542.47;5523781;32;34866;-84
2022/01/29 08:19:06;;;;;;;;;;;;;;;1.77;66.93;101525.53;5519798;32;34580;-84
2022/01/29 08:22:09;;;;;;;;;;;;;;;1.88;66.30;101532.94;5520798;32;34676;-84
2022/01/29 08:25:11;;;;;;;;;;;;;;;1.96;66.25;101530.94;5523576;32;34444;-84
2022/01/29 08:28:19;;;;;;;;;;;;;;;1.91;65.47;101532.84;5521648;32;34723;-84
2022/01/29 08:31:21;;;;;;;;;;;;;;;1.87;65.26;101537.34;5521365;32;34157;-84
2022/01/29 08:34:25;;;;;;;;;;;;;;;1.98;64.47;101539.53;5523779;32;34256;-84
2022/01/29 08:37:27;;;;;;;;;;;;;;;1.82;64.58;101532.28;5519917;32;34911;-84
2022/01/29 08:40:30;;;;;;;;;;;;;;;1.82;64.73;101526.19;5519717;32;34334;-84
2022/01/29 08:43:33;;;;;;;;;;;;;;;1.76;65.39;101527.25;5519465;32;34699;-84
2022/01/29 08:46:36;;;;;;;;;;;;;;;1.74;64.82;101536.91;5520719;32;34333;-84
2022/01/29 08:49:40;;;;;;;;;;;;;;;1.68;64.50;101550.16;5521032;32;34904;-84
2022/01/29 08:52:45;;;;;;;;;;;;;;;1.67;64.92;101546.72;5520602;32;34899;-84
2022/01/29 08:55:51;;;;;;;;;;;;;;;1.68;63.97;101547.56;5519353;32;34859;-84
2022/01/29 08:58:53;;;;;;;;;;;;;;;1.75;64.03;101548.19;5528812;32;34871;-84
2022/01/29 09:01:56;;;;;;;;;;;;;;;1.76;63.03;101552.50;5538586;32;34432;-84
2022/01/29 09:04:59;;;;;;;;;;;;;;;2.00;61.62;101556.00;5538363;32;34297;-84
2022/01/29 09:08:03;;;;;;;;;;;;;;;2.10;61.64;101562.59;5539184;32;35283;-84
2022/01/29 09:11:07;;;;;;;;;;;;;;;2.11;60.81;101561.69;5539955;32;34555;-84
2022/01/29 09:14:09;;;;;;;;;;;;;;;2.11;60.18;101566.91;5539829;32;34192;-84
2022/01/29 09:17:12;;;;;;;;;;;;;;;2.28;60.57;101578.50;5540050;32;34784;-85
2022/01/29 09:20:16;;;;;;;;;;;;;;;2.45;60.32;101580.50;5539903;32;34793;-84
2022/01/29 09:23:18;;;;;;;;;;;;;;;2.51;60.32;101574.19;5539615;32;34814;-85
2022/01/29 09:26:22;;;;;;;;;;;;;;;2.65;59.15;101579.72;5540429;32;35161;-85
2022/01/29 09:29:25;;;;;;;;;;;;;;;2.39;60.91;101572.87;5538887;32;34862;-84
2022/01/29 09:32:28;;;;;;;;;;;;;;;2.38;61.81;101566.81;5539101;32;34882;-84
2022/01/29 09:35:30;;;;;;;;;;;;;;;2.23;61.44;101559.53;5540763;32;34486;-85
2022/01/29 09:38:34;;;;;;;;;;;;;;;2.27;61.94;101559.37;5553278;32;35092;-84
2022/01/29 09:41:42;;;;;;;;;;;;;;;2.32;61.07;101556.59;5542039;32;34537;-84
2022/01/29 09:44:47;;;;;;;;;;;;;;;2.47;60.61;101553.41;5541134;32;34678;-84
2022/01/29 09:48:01;;;;;;;;;;;;;;;2.63;61.41;101553.66;5550408;32;34662;-84
2022/01/29 09:51:08;;;;;;;;;;;;;;;3.16;58.76;101535.06;5560514;32;34307;-85
2022/01/29 09:54:10;;;;;;;;;;;;;;;3.03;58.48;101535.56;5559904;32;34653;-85
2022/01/29 09:57:13;;;;;;;;;;;;;;;3.13;58.26;101527.34;5561192;32;35305;-85
2022/01/29 10:00:18;;;;;;;;;;;;;;;3.14;58.50;101526.44;5563029;32;35797;-85
2022/01/29 10:03:21;;;;;;;;;;;;;;;3.32;57.27;101520.41;5563798;32;34801;-85
2022/01/29 10:06:24;;;;;;;;;;;;;;;3.46;57.11;101511.13;5542671;32;37555;-85
2022/01/29 10:09:33;;;;;;;;;;;;;;;3.64;56.50;101514.75;5546196;32;35541;-85
2022/01/29 10:12:37;;;;;;;;;;;;;;;4.01;55.79;101513.97;5561825;32;34859;-85
2022/01/29 10:15:41;;;;;;;;;;;;;;;3.92;56.71;101503.91;5559866;32;35468;-85
2022/01/29 10:18:57;;;;;;;;;;;;;;;3.74;57.73;101491.63;5560169;32;35013;-85
2022/01/29 10:22:00;;;;;;;;;;;;;;;4.01;56.90;101497.41;5559452;32;34644;-85
2022/01/29 10:25:06;;;;;;;;;;;;;;;4.23;56.90;101486.78;5560036;32;34411;-85
2022/01/29 10:28:10;;;;;;;;;;;;;;;4.43;56.88;101482.41;5560036;32;34893;-85
2022/01/29 10:31:15;;;;;;;;;;;;;;;4.09;58.83;101494.44;5561140;32;35434;-85
2022/01/29 10:34:23;;;;;;;;;;;;;;;4.10;59.26;101486.50;5560488;32;34713;-85
2022/01/29 10:37:26;;;;;;;;;;;;;;;4.10;59.38;101477.81;5559901;32;34535;-85
2022/01/29 10:40:34;;;;;;;;;;;;;;;3.91;60.64;101470.78;5554518;32;34855;-85
2022/01/29 10:43:57;;;;;;;;;;;;;;;3.73;61.34;101471.63;5561425;32;34926;-85
2022/01/29 10:46:59;;;;;;;;;;;;;;;3.75;61.90;101465.38;5526831;32;34822;-85
2022/01/29 10:50:06;;;;;;;;;;;;;;;3.89;62.37;101456.91;5558238;32;35381;-85
2022/01/29 10:53:25;;;;;;;;;;;;;;;3.94;62.68;101462.78;5554140;32;35259;-85
2022/01/29 10:56:28;;;;;;;;;;;;;;;4.04;63.19;101460.63;5557803;32;34878;-85
2022/01/29 10:59:38;;;;;;;;;;;;;;;3.81;64.35;101459.03;5561956;32;35390;-85
2022/01/29 11:02:44;;;;;;;;;;;;;;;3.88;64.17;101455.22;5562147;32;35926;-84
2022/01/29 11:05:47;;;;;;;;;;;;;;;4.06;64.19;101453.50;5560330;32;35720;-85
2022/01/29 11:08:49;;;;;;;;;;;;;;;4.28;64.10;101457.75;5562123;32;35195;-84
2022/01/29 11:11:53;;;;;;;;;;;;;;;4.38;63.94;101455.56;5560938;32;34701;-85
2022/01/29 11:15:00;;;;;;;;;;;;;;;4.40;63.91;101451.09;5561392;32;34910;-85
2022/01/29 11:18:05;;;;;;;;;;;;;;;4.04;65.08;101454.50;5561905;32;35383;-84
2022/01/29 11:21:10;;;;;;;;;;;;;;;4.43;64.07;101450.97;5562525;32;35820;-84
2022/01/29 11:24:16;;;;;;;;;;;;;;;4.72;62.99;101446.94;5563062;32;34781;-84
2022/01/29 11:27:19;;;;;;;;;;;;;;;4.76;62.99;101439.75;5562024;32;34745;-86
2022/01/29 11:30:22;;;;;;;;;;;;;;;4.53;63.34;101428.62;5560092;32;35782;-85
2022/01/29 11:33:25;;;;;;;;;;;;;;;4.66;63.07;101426.25;5564427;32;34737;-85
2022/01/29 11:36:46;;;;;;;;;;;;;;;4.57;63.67;101422.28;5561776;32;34472;-85
2022/01/29 11:40:11;;;;;;;;;;;;;;;5.00;62.61;101415.88;5561377;32;34252;-85
2022/01/29 11:43:14;;;;;;;;;;;;;;;5.12;62.12;101407.38;5565944;32;34790;-85
2022/01/29 11:46:31;;;;;;;;;;;;;;;4.48;63.75;101409.66;5562020;32;35640;-85
2022/01/29 11:49:34;;;;;;;;;;;;;;;4.57;64.94;101411.81;5563609;32;34881;-85
2022/01/29 11:52:52;;;;;;;;;;;;;;;4.77;63.87;101399.50;5562683;32;34706;-85
2022/01/29 11:55:57;;;;;;;;;;;;;;;4.56;64.44;101394.38;5562368;32;35244;-85
2022/01/29 11:59:20;;;;;;;;;;;;;;;4.57;64.61;101396.09;5560447;32;34915;-85
2022/01/29 12:02:28;;;;;;;;;;;;;;;4.76;64.95;101395.19;5563589;32;34456;-85
2022/01/29 12:06:23;;;;;;;;;;;;;;;4.54;66.05;101391.03;5559779;32;34181;-84
2022/01/29 12:09:27;;;;;;;;;;;;;;;4.67;66.16;101386.00;5560272;32;34876;-85
2022/01/29 12:12:37;;;;;;;;;;;;;;;4.42;66.64;101376.72;5560179;32;34942;-85
2022/01/29 12:15:40;;;;;;;;;;;;;;;4.19;67.79;101375.22;5561724;32;34903;-85
2022/01/29 12:18:43;;;;;;;;;;;;;;;4.07;68.41;101366.19;5560438;32;34806;-85
2022/01/29 12:21:45;;;;;;;;;;;;;;;4.10;68.72;101352.09;5562172;32;35142;-85
2022/01/29 12:24:51;;;;;;;;;;;;;;;4.17;68.32;101345.63;5564780;32;34726;-86
2022/01/29 12:27:55;;;;;;;;;;;;;;;4.16;68.57;101347.44;5562181;32;35763;-85
2022/01/29 12:30:58;;;;;;;;;;;;;;;3.97;69.41;101339.59;5560663;32;35821;-85
2022/01/29 12:34:11;;;;;;;;;;;;;;;3.97;70.06;101334.34;5561842;32;34993;-86
2022/01/29 12:37:15;;;;;;;;;;;;;;;4.13;69.86;101317.88;5561204;32;34957;-85
2022/01/29 12:40:20;;;;;;;;;;;;;;;4.18;69.80;101313.28;5562313;32;35842;-85
2022/01/29 12:43:23;;;;;;;;;;;;;;;4.07;69.64;101302.50;5562626;32;34983;-86
2022/01/29 12:46:30;;;;;;;;;;;;;;;3.98;70.37;101309.88;5561988;32;34586;-85
2022/01/29 12:49:42;;;;;;;;;;;;;;;4.01;70.16;101301.00;5561466;32;35207;-84
2022/01/29 12:52:44;;;;;;;;;;;;;;;3.86;70.66;101289.50;5561820;32;34819;-85
2022/01/29 12:56:00;;;;;;;;;;;;;;;3.92;70.88;101288.38;5560269;32;35054;-86
2022/01/29 12:59:10;;;;;;;;;;;;;;;3.82;70.21;101285.34;5561373;32;35114;-85
2022/01/29 13:02:13;;;;;;;;;;;;;;;3.97;70.06;101281.13;5561702;32;34475;-86
2022/01/29 13:05:23;;;;;;;;;;;;;;;3.94;70.07;101276.91;5561553;32;35335;-84
2022/01/29 13:08:26;;;;;;;;;;;;;;;3.82;70.95;101270.50;5560516;32;36410;-84
2022/01/29 13:11:30;;;;;;;;;;;;;;;3.97;70.74;101270.66;5563592;32;34159;-84
2022/01/29 13:14:34;;;;;;;;;;;;;;;3.91;71.58;101273.59;5560713;32;34672;-85
2022/01/29 13:17:42;;;;;;;;;;;;;;;4.07;71.08;101277.13;5560156;32;34984;-84
2022/01/29 13:20:45;;;;;;;;;;;;;;;4.20;69.12;101268.69;5559590;32;34839;-85
2022/01/29 13:23:50;;;;;;;;;;;;;;;4.17;68.59;101270.50;5560973;32;34683;-85
2022/01/29 13:27:13;;;;;;;;;;;;;;;4.29;68.98;101271.69;5560630;32;35763;-84
2022/01/29 13:30:18;;;;;;;;;;;;;;;4.26;68.87;101266.59;5558962;32;34799;-84
2022/01/29 13:33:22;;;;;;;;;;;;;;;4.28;69.19;101264.75;5558895;32;34808;-84
2022/01/29 13:36:32;;;;;;;;;;;;;;;4.19;69.43;101267.84;5560821;32;34116;-84
2022/01/29 13:39:47;;;;;;;;;;;;;;;3.96;70.85;101263.72;5560178;32;34581;-85
2022/01/29 13:42:57;;;;;;;;;;;;;;;4.00;70.95;101253.00;5546171;32;35554;-84
2022/01/29 13:46:04;;;;;;;;;;;;;;;3.84;71.52;101252.91;5561388;32;34516;-84
2022/01/29 13:49:07;;;;;;;;;;;;;;;3.89;71.54;101242.22;5560866;32;35008;-84
2022/01/29 13:52:14;;;;;;;;;;;;;;;3.86;71.35;101243.22;5560197;32;34815;-87
2022/01/29 13:55:17;;;;;;;;;;;;;;;3.84;71.26;101244.22;5560617;32;34831;-84
2022/01/29 13:58:27;;;;;;;;;;;;;;;3.78;71.72;101229.66;5559179;32;35469;-84
2022/01/29 14:01:36;;;;;;;;;;;;;;;3.77;72.35;101221.91;5559407;32;35775;-84
2022/01/29 14:04:45;;;;;;;;;;;;;;;3.74;71.85;101237.75;5560136;32;34802;-84
2022/01/29 14:07:47;;;;;;;;;;;;;;;3.69;72.00;101230.97;5559067;32;35242;-84
2022/01/29 14:11:14;;;;;;;;;;;;;;;3.73;72.53;101215.12;5560197;32;34450;-84
2022/01/29 14:14:18;;;;;;;;;;;;;;;3.87;72.28;101205.66;5559184;32;34596;-85
2022/01/29 14:17:32;;;;;;;;;;;;;;;3.82;72.81;101193.72;5559154;32;34913;-84
2022/01/29 14:20:35;;;;;;;;;;;;;;;3.84;72.69;101186.63;5560057;32;34594;-84
2022/01/29 14:23:48;;;;;;;;;;;;;;;3.87;73.26;101181.25;5559748;32;35086;-84
2022/01/29 14:26:55;;;;;;;;;;;;;;;3.87;73.33;101176.84;5560098;32;34158;-85
2022/01/29 14:30:02;;;;;;;;;;;;;;;3.83;73.73;101174.47;5560020;32;34358;-85
2022/01/29 14:33:07;;;;;;;;;;;;;;;3.98;73.33;101175.47;5558499;32;34683;-84
2022/01/29 14:36:12;;;;;;;;;;;;;;;3.88;73.09;101172.50;5558525;32;34479;-84
2022/01/29 14:39:16;;;;;;;;;;;;;;;3.90;73.23;101165.37;5559098;32;34900;-84
2022/01/29 14:42:27;;;;;;;;;;;;;;;3.80;74.19;101162.37;5557774;32;34955;-84
2022/01/29 14:45:29;;;;;;;;;;;;;;;3.71;73.59;101153.22;5559184;32;35368;-85
2022/01/29 14:48:33;;;;;;;;;;;;;;;3.85;73.58;101154.31;5560382;32;34973;-85
2022/01/29 14:51:38;;;;;;;;;;;;;;;3.65;74.72;101144.81;5558593;32;34299;-85
2022/01/29 14:54:42;;;;;;;;;;;;;;;3.62;74.28;101151.06;5552280;32;33934;-86
2022/01/29 14:57:44;;;;;;;;;;;;;;;3.60;74.80;101142.44;5541247;32;35529;-85
2022/01/29 15:00:49;;;;;;;;;;;;;;;3.59;74.87;101145.97;5540519;32;35303;-84
2022/01/29 15:03:53;;;;;;;;;;;;;;;3.52;75.44;101134.12;5538330;32;34706;-84
2022/01/29 15:06:57;;;;;;;;;;;;;;;3.47;76.58;101136.09;5539355;32;34357;-84
2022/01/29 15:10:05;;;;;;;;;;;;;;;3.43;75.84;101131.97;5545761;32;34644;-84
2022/01/29 15:13:09;;;;;;;;;;;;;;;3.32;77.18;101128.06;5547725;32;34788;-84
2022/01/29 15:16:12;;;;;;;;;;;;;;;3.32;77.48;101114.16;5558968;32;34681;-85
2022/01/29 15:19:15;;;;;;;;;;;;;;;3.30;77.17;101114.25;5559343;32;34082;-84
2022/01/29 15:22:17;;;;;;;;;;;;;;;3.21;80.25;101110.28;5559887;32;34909;-84
2022/01/29 15:25:23;;;;;;;;;;;;;;;3.17;79.98;101098.28;5558857;32;34798;-84
2022/01/29 15:28:25;;;;;;;;;;;;;;;3.12;80.68;101105.50;5558690;32;34683;-84
2022/01/29 15:31:28;;;;;;;;;;;;;;;3.08;80.20;101094.34;5559443;32;35173;-84
2022/01/29 15:34:31;;;;;;;;;;;;;;;2.99;80.90;101100.00;5559119;32;35293;-83
2022/01/29 15:37:33;;;;;;;;;;;;;;;2.93;82.51;101085.44;5559629;32;34649;-83
2022/01/29 15:40:36;;;;;;;;;;;;;;;2.80;84.00;101084.34;5560777;32;34791;-84
2022/01/29 15:43:39;;;;;;;;;;;;;;;2.68;85.62;101080.53;5560090;32;34680;-84
2022/01/29 15:46:44;;;;;;;;;;;;;;;2.58;86.78;101084.50;5547138;32;34840;-83
2022/01/29 15:49:47;;;;;;;;;;;;;;;2.56;88.34;101086.31;5540817;32;35374;-83
2022/01/29 15:52:50;;;;;;;;;;;;;;;2.45;89.64;101089.44;5541690;32;34560;-83
2022/01/29 15:55:53;;;;;;;;;;;;;;;2.41;90.33;101087.87;5540422;32;34682;-83
2022/01/29 15:58:56;;;;;;;;;;;;;;;2.37;90.98;101084.56;5549133;32;35684;-83
2022/01/29 16:02:02;;;;;;;;;;;;;;;2.36;91.65;101082.84;5558855;32;34240;-83
2022/01/29 16:05:05;;;;;;;;;;;;;;;2.31;92.35;101082.19;5560370;32;34693;-83
2022/01/29 16:08:07;;;;;;;;;;;;;;;2.28;94.14;101071.91;5561738;32;35791;-83